sensor_id;sensor_type;location;lat;lon;timestamp;P1;durP1;ratioP1;P2;durP2;ratioP2
47796;SDS011;33558;50.922;14.068;2023-03-11T00:00:05;1.00;;;0.53;;
47796;SDS011;33558;50.922;14.068;2023-03-11T00:02:37;0.40;;;0.30;;
47796;SDS011;33558;50.922;14.068;2023-03-11T00:05:04;0.20;;;0.20;;
47796;SDS011;33558;50.922;14.068;2023-03-11T00:07:33;0.40;;;0.30;;
47796;SDS011;33558;50.922;14.068;2023-03-11T00:10:02;0.30;;;0.20;;
47796;SDS011;33558;50.922;14.068;2023-03-11T00:12:29;0.67;;;0.40;;
47796;SDS011;33558;50.922;14.068;2023-03-11T00:14:55;0.33;;;0.20;;
47796;SDS011;33558;50.922;14.068;2023-03-11T00:17:22;0.37;;;0.30;;
47796;SDS011;33558;50.922;14.068;2023-03-11T00:19:49;0.30;;;0.30;;
47796;SDS011;33558;50.922;14.068;2023-03-11T00:22:18;0.30;;;0.20;;
47796;SDS011;33558;50.922;14.068;2023-03-11T00:24:46;0.60;;;0.40;;
47796;SDS011;33558;50.922;14.068;2023-03-11T00:27:12;0.60;;;0.37;;
47796;SDS011;33558;50.922;14.068;2023-03-11T00:29:40;3.60;;;0.50;;
47796;SDS011;33558;50.922;14.068;2023-03-11T00:32:07;0.50;;;0.50;;
47796;SDS011;33558;50.922;14.068;2023-03-11T00:34:35;0.43;;;0.27;;
47796;SDS011;33558;50.922;14.068;2023-03-11T00:37:02;0.80;;;0.50;;
47796;SDS011;33558;50.922;14.068;2023-03-11T00:39:29;0.50;;;0.33;;
47796;SDS011;33558;50.922;14.068;2023-03-11T00:41:59;0.80;;;0.50;;
47796;SDS011;33558;50.922;14.068;2023-03-11T00:44:26;0.73;;;0.60;;
47796;SDS011;33558;50.922;14.068;2023-03-11T00:46:54;0.60;;;0.40;;
47796;SDS011;33558;50.922;14.068;2023-03-11T00:49:22;0.70;;;0.40;;
47796;SDS011;33558;50.922;14.068;2023-03-11T00:51:49;0.80;;;0.50;;
47796;SDS011;33558;50.922;14.068;2023-03-11T00:54:15;1.03;;;0.50;;
47796;SDS011;33558;50.922;14.068;2023-03-11T00:56:42;0.70;;;0.43;;
47796;SDS011;33558;50.922;14.068;2023-03-11T00:59:11;0.90;;;0.70;;
47796;SDS011;33558;50.922;14.068;2023-03-11T01:01:38;0.80;;;0.50;;
47796;SDS011;33558;50.922;14.068;2023-03-11T01:04:05;1.27;;;0.70;;
47796;SDS011;33558;50.922;14.068;2023-03-11T01:06:32;1.27;;;0.80;;
47796;SDS011;33558;50.922;14.068;2023-03-11T01:08:59;0.93;;;0.67;;
47796;SDS011;33558;50.922;14.068;2023-03-11T01:11:26;0.80;;;0.60;;
47796;SDS011;33558;50.922;14.068;2023-03-11T01:13:53;1.70;;;0.60;;
47796;SDS011;33558;50.922;14.068;2023-03-11T01:16:22;1.20;;;0.80;;
47796;SDS011;33558;50.922;14.068;2023-03-11T01:18:50;0.73;;;0.57;;
47796;SDS011;33558;50.922;14.068;2023-03-11T01:21:16;2.40;;;0.87;;
47796;SDS011;33558;50.922;14.068;2023-03-11T01:23:43;1.60;;;1.07;;
47796;SDS011;33558;50.922;14.068;2023-03-11T01:26:10;1.07;;;0.70;;
47796;SDS011;33558;50.922;14.068;2023-03-11T01:28:37;1.50;;;0.90;;
47796;SDS011;33558;50.922;14.068;2023-03-11T01:31:04;2.30;;;0.97;;
47796;SDS011;33558;50.922;14.068;2023-03-11T01:33:32;1.63;;;0.97;;
47796;SDS011;33558;50.922;14.068;2023-03-11T01:35:59;1.77;;;1.10;;
47796;SDS011;33558;50.922;14.068;2023-03-11T01:38:26;2.07;;;1.47;;
47796;SDS011;33558;50.922;14.068;2023-03-11T01:40:53;2.67;;;1.23;;
47796;SDS011;33558;50.922;14.068;2023-03-11T01:43:36;1.80;;;1.20;;
47796;SDS011;33558;50.922;14.068;2023-03-11T01:46:11;2.10;;;1.50;;
47796;SDS011;33558;50.922;14.068;2023-03-11T01:48:43;2.40;;;1.50;;
47796;SDS011;33558;50.922;14.068;2023-03-11T01:51:11;1.93;;;1.37;;
47796;SDS011;33558;50.922;14.068;2023-03-11T01:53:38;2.30;;;1.70;;
47796;SDS011;33558;50.922;14.068;2023-03-11T01:56:05;2.43;;;1.67;;
47796;SDS011;33558;50.922;14.068;2023-03-11T01:58:33;2.27;;;1.63;;
47796;SDS011;33558;50.922;14.068;2023-03-11T02:01:08;2.43;;;1.73;;
47796;SDS011;33558;50.922;14.068;2023-03-11T02:03:35;2.23;;;1.70;;
47796;SDS011;33558;50.922;14.068;2023-03-11T02:06:07;2.40;;;1.77;;
47796;SDS011;33558;50.922;14.068;2023-03-11T02:08:37;1.80;;;1.20;;
47796;SDS011;33558;50.922;14.068;2023-03-11T02:11:07;1.57;;;1.27;;
47796;SDS011;33558;50.922;14.068;2023-03-11T02:13:36;1.97;;;1.40;;
47796;SDS011;33558;50.922;14.068;2023-03-11T02:16:04;1.87;;;1.03;;
47796;SDS011;33558;50.922;14.068;2023-03-11T02:18:31;1.20;;;1.00;;
47796;SDS011;33558;50.922;14.068;2023-03-11T02:21:02;1.80;;;1.23;;
47796;SDS011;33558;50.922;14.068;2023-03-11T02:23:35;1.80;;;1.33;;
47796;SDS011;33558;50.922;14.068;2023-03-11T02:26:08;2.23;;;1.27;;
47796;SDS011;33558;50.922;14.068;2023-03-11T02:28:40;1.67;;;1.10;;
47796;SDS011;33558;50.922;14.068;2023-03-11T02:31:08;1.60;;;1.10;;
47796;SDS011;33558;50.922;14.068;2023-03-11T02:33:35;1.60;;;1.00;;
47796;SDS011;33558;50.922;14.068;2023-03-11T02:38:58;2.70;;;1.10;;
47796;SDS011;33558;50.922;14.068;2023-03-11T02:41:25;1.20;;;1.00;;
47796;SDS011;33558;50.922;14.068;2023-03-11T02:43:54;1.50;;;1.37;;
47796;SDS011;33558;50.922;14.068;2023-03-11T02:46:22;1.80;;;1.20;;
47796;SDS011;33558;50.922;14.068;2023-03-11T02:48:50;1.27;;;0.93;;
47796;SDS011;33558;50.922;14.068;2023-03-11T02:51:17;1.57;;;1.20;;
47796;SDS011;33558;50.922;14.068;2023-03-11T02:53:45;1.60;;;1.10;;
47796;SDS011;33558;50.922;14.068;2023-03-11T02:56:14;1.90;;;1.20;;
47796;SDS011;33558;50.922;14.068;2023-03-11T02:58:41;1.50;;;1.10;;
47796;SDS011;33558;50.922;14.068;2023-03-11T03:01:10;1.23;;;1.03;;
47796;SDS011;33558;50.922;14.068;2023-03-11T03:03:38;1.77;;;1.20;;
47796;SDS011;33558;50.922;14.068;2023-03-11T03:06:07;1.33;;;1.00;;
47796;SDS011;33558;50.922;14.068;2023-03-11T03:08:36;1.40;;;1.10;;
47796;SDS011;33558;50.922;14.068;2023-03-11T03:11:03;1.50;;;1.13;;
47796;SDS011;33558;50.922;14.068;2023-03-11T03:13:30;1.13;;;0.87;;
47796;SDS011;33558;50.922;14.068;2023-03-11T03:15:58;1.33;;;1.03;;
47796;SDS011;33558;50.922;14.068;2023-03-11T03:21:16;1.60;;;1.00;;
47796;SDS011;33558;50.922;14.068;2023-03-11T03:23:43;1.20;;;0.90;;
47796;SDS011;33558;50.922;14.068;2023-03-11T03:26:11;0.93;;;0.83;;
47796;SDS011;33558;50.922;14.068;2023-03-11T03:28:49;2.63;;;1.50;;
47796;SDS011;33558;50.922;14.068;2023-03-11T03:32:00;2.80;;;1.00;;
47796;SDS011;33558;50.922;14.068;2023-03-11T03:38:22;1.67;;;1.20;;
47796;SDS011;33558;50.922;14.068;2023-03-11T03:40:53;1.40;;;1.10;;
47796;SDS011;33558;50.922;14.068;2023-03-11T03:43:53;1.70;;;1.27;;
47796;SDS011;33558;50.922;14.068;2023-03-11T03:46:34;2.17;;;1.37;;
47796;SDS011;33558;50.922;14.068;2023-03-11T03:49:10;1.90;;;1.37;;
47796;SDS011;33558;50.922;14.068;2023-03-11T03:54:57;3.60;;;2.13;;
47796;SDS011;33558;50.922;14.068;2023-03-11T03:57:43;2.80;;;1.90;;
47796;SDS011;33558;50.922;14.068;2023-03-11T04:03:21;2.73;;;2.13;;
47796;SDS011;33558;50.922;14.068;2023-03-11T04:06:19;2.93;;;2.30;;
47796;SDS011;33558;50.922;14.068;2023-03-11T04:09:04;4.23;;;3.00;;
47796;SDS011;33558;50.922;14.068;2023-03-11T04:11:48;4.00;;;3.20;;
47796;SDS011;33558;50.922;14.068;2023-03-11T04:14:20;5.07;;;3.20;;
47796;SDS011;33558;50.922;14.068;2023-03-11T04:17:03;5.20;;;3.60;;
47796;SDS011;33558;50.922;14.068;2023-03-11T04:19:52;5.57;;;3.90;;
47796;SDS011;33558;50.922;14.068;2023-03-11T04:30:51;6.40;;;4.40;;
47796;SDS011;33558;50.922;14.068;2023-03-11T04:33:54;7.07;;;4.70;;
47796;SDS011;33558;50.922;14.068;2023-03-11T04:36:36;6.50;;;4.27;;
47796;SDS011;33558;50.922;14.068;2023-03-11T04:39:55;6.10;;;4.33;;
47796;SDS011;33558;50.922;14.068;2023-03-11T04:48:21;8.30;;;5.60;;
47796;SDS011;33558;50.922;14.068;2023-03-11T04:50:49;8.60;;;5.30;;
47796;SDS011;33558;50.922;14.068;2023-03-11T04:53:17;9.00;;;5.53;;
47796;SDS011;33558;50.922;14.068;2023-03-11T04:55:45;9.13;;;5.90;;
47796;SDS011;33558;50.922;14.068;2023-03-11T04:58:13;10.70;;;5.43;;
47796;SDS011;33558;50.922;14.068;2023-03-11T05:00:50;8.30;;;5.63;;
47796;SDS011;33558;50.922;14.068;2023-03-11T05:03:17;9.60;;;6.27;;
47796;SDS011;33558;50.922;14.068;2023-03-11T05:12:17;10.17;;;6.53;;
47796;SDS011;33558;50.922;14.068;2023-03-11T05:17:36;10.43;;;7.23;;
47796;SDS011;33558;50.922;14.068;2023-03-11T05:20:38;11.33;;;7.77;;
47796;SDS011;33558;50.922;14.068;2023-03-11T05:23:17;12.70;;;7.60;;
47796;SDS011;33558;50.922;14.068;2023-03-11T05:37:31;10.40;;;7.07;;
47796;SDS011;33558;50.922;14.068;2023-03-11T05:43:17;11.03;;;7.80;;
47796;SDS011;33558;50.922;14.068;2023-03-11T05:46:18;10.83;;;7.37;;
47796;SDS011;33558;50.922;14.068;2023-03-11T05:49:04;8.57;;;6.10;;
47796;SDS011;33558;50.922;14.068;2023-03-11T05:52:08;9.83;;;6.87;;
47796;SDS011;33558;50.922;14.068;2023-03-11T05:54:52;9.33;;;6.37;;
47796;SDS011;33558;50.922;14.068;2023-03-11T05:57:30;8.00;;;5.80;;
47796;SDS011;33558;50.922;14.068;2023-03-11T06:00:51;8.77;;;5.97;;
47796;SDS011;33558;50.922;14.068;2023-03-11T06:04:51;7.53;;;5.80;;
47796;SDS011;33558;50.922;14.068;2023-03-11T06:08:04;8.00;;;5.57;;
47796;SDS011;33558;50.922;14.068;2023-03-11T06:17:35;7.80;;;5.43;;
47796;SDS011;33558;50.922;14.068;2023-03-11T06:28:18;8.20;;;5.70;;
47796;SDS011;33558;50.922;14.068;2023-03-11T06:31:13;8.20;;;6.00;;
47796;SDS011;33558;50.922;14.068;2023-03-11T06:34:08;8.83;;;5.97;;
47796;SDS011;33558;50.922;14.068;2023-03-11T06:36:53;7.00;;;5.00;;
47796;SDS011;33558;50.922;14.068;2023-03-11T06:47:32;8.30;;;5.97;;
47796;SDS011;33558;50.922;14.068;2023-03-11T06:50:01;8.83;;;6.47;;
47796;SDS011;33558;50.922;14.068;2023-03-11T07:01:32;8.83;;;6.53;;
47796;SDS011;33558;50.922;14.068;2023-03-11T07:12:40;11.30;;;7.63;;
47796;SDS011;33558;50.922;14.068;2023-03-11T07:15:08;10.50;;;6.87;;
47796;SDS011;33558;50.922;14.068;2023-03-11T07:17:36;11.40;;;7.07;;
47796;SDS011;33558;50.922;14.068;2023-03-11T07:20:42;12.43;;;8.00;;
47796;SDS011;33558;50.922;14.068;2023-03-11T07:23:12;12.80;;;9.23;;
47796;SDS011;33558;50.922;14.068;2023-03-11T07:25:44;11.83;;;8.37;;
47796;SDS011;33558;50.922;14.068;2023-03-11T07:28:13;9.87;;;7.17;;
47796;SDS011;33558;50.922;14.068;2023-03-11T07:30:40;11.83;;;7.57;;
47796;SDS011;33558;50.922;14.068;2023-03-11T07:33:08;12.40;;;7.87;;
47796;SDS011;33558;50.922;14.068;2023-03-11T07:41:00;12.70;;;7.97;;
47796;SDS011;33558;50.922;14.068;2023-03-11T07:51:39;12.83;;;8.60;;
47796;SDS011;33558;50.922;14.068;2023-03-11T07:54:08;13.33;;;8.33;;
47796;SDS011;33558;50.922;14.068;2023-03-11T07:56:36;12.60;;;8.27;;
47796;SDS011;33558;50.922;14.068;2023-03-11T07:59:03;12.47;;;7.97;;
47796;SDS011;33558;50.922;14.068;2023-03-11T08:01:31;14.53;;;8.60;;
47796;SDS011;33558;50.922;14.068;2023-03-11T08:04:02;13.10;;;9.40;;
47796;SDS011;33558;50.922;14.068;2023-03-11T08:06:31;14.37;;;9.77;;
47796;SDS011;33558;50.922;14.068;2023-03-11T08:09:00;13.43;;;9.23;;
47796;SDS011;33558;50.922;14.068;2023-03-11T08:11:29;13.90;;;8.67;;
47796;SDS011;33558;50.922;14.068;2023-03-11T08:13:56;14.37;;;9.30;;
47796;SDS011;33558;50.922;14.068;2023-03-11T08:16:24;13.57;;;9.70;;
47796;SDS011;33558;50.922;14.068;2023-03-11T08:18:51;15.17;;;9.17;;
47796;SDS011;33558;50.922;14.068;2023-03-11T08:21:19;14.90;;;8.60;;
47796;SDS011;33558;50.922;14.068;2023-03-11T08:23:47;13.90;;;8.87;;
47796;SDS011;33558;50.922;14.068;2023-03-11T08:26:16;13.80;;;9.33;;
47796;SDS011;33558;50.922;14.068;2023-03-11T08:28:44;14.40;;;8.10;;
47796;SDS011;33558;50.922;14.068;2023-03-11T08:31:12;14.67;;;8.23;;
47796;SDS011;33558;50.922;14.068;2023-03-11T08:33:39;12.13;;;7.93;;
47796;SDS011;33558;50.922;14.068;2023-03-11T08:36:07;14.50;;;9.93;;
47796;SDS011;33558;50.922;14.068;2023-03-11T08:38:35;14.00;;;8.27;;
47796;SDS011;33558;50.922;14.068;2023-03-11T08:41:07;14.73;;;9.80;;
47796;SDS011;33558;50.922;14.068;2023-03-11T08:43:37;14.33;;;8.87;;
47796;SDS011;33558;50.922;14.068;2023-03-11T08:46:05;14.50;;;9.10;;
47796;SDS011;33558;50.922;14.068;2023-03-11T08:48:35;14.70;;;8.60;;
47796;SDS011;33558;50.922;14.068;2023-03-11T08:51:07;18.90;;;10.27;;
47796;SDS011;33558;50.922;14.068;2023-03-11T08:53:46;14.27;;;9.20;;
47796;SDS011;33558;50.922;14.068;2023-03-11T08:56:13;14.83;;;8.47;;
47796;SDS011;33558;50.922;14.068;2023-03-11T08:58:42;15.20;;;9.57;;
47796;SDS011;33558;50.922;14.068;2023-03-11T09:01:12;16.30;;;9.50;;
47796;SDS011;33558;50.922;14.068;2023-03-11T09:03:41;18.13;;;9.33;;
47796;SDS011;33558;50.922;14.068;2023-03-11T09:06:10;14.97;;;8.83;;
47796;SDS011;33558;50.922;14.068;2023-03-11T09:08:39;15.20;;;9.13;;
47796;SDS011;33558;50.922;14.068;2023-03-11T09:11:07;13.97;;;8.70;;
47796;SDS011;33558;50.922;14.068;2023-03-11T09:16:55;16.20;;;9.93;;
47796;SDS011;33558;50.922;14.068;2023-03-11T09:19:21;16.83;;;10.00;;
47796;SDS011;33558;50.922;14.068;2023-03-11T09:21:48;14.57;;;9.13;;
47796;SDS011;33558;50.922;14.068;2023-03-11T09:24:15;18.97;;;9.97;;
47796;SDS011;33558;50.922;14.068;2023-03-11T09:26:43;16.00;;;9.77;;
47796;SDS011;33558;50.922;14.068;2023-03-11T09:29:11;17.00;;;9.73;;
47796;SDS011;33558;50.922;14.068;2023-03-11T09:31:38;16.20;;;10.37;;
47796;SDS011;33558;50.922;14.068;2023-03-11T09:34:13;15.70;;;10.07;;
47796;SDS011;33558;50.922;14.068;2023-03-11T09:36:40;14.97;;;9.73;;
47796;SDS011;33558;50.922;14.068;2023-03-11T09:39:07;17.40;;;9.73;;
47796;SDS011;33558;50.922;14.068;2023-03-11T09:41:37;12.73;;;9.00;;
47796;SDS011;33558;50.922;14.068;2023-03-11T09:44:11;14.07;;;9.43;;
47796;SDS011;33558;50.922;14.068;2023-03-11T09:46:49;22.80;;;13.80;;
47796;SDS011;33558;50.922;14.068;2023-03-11T09:49:39;23.83;;;15.37;;
47796;SDS011;33558;50.922;14.068;2023-03-11T09:52:12;14.13;;;9.20;;
47796;SDS011;33558;50.922;14.068;2023-03-11T09:54:41;33.90;;;18.27;;
47796;SDS011;33558;50.922;14.068;2023-03-11T09:57:11;14.47;;;10.50;;
47796;SDS011;33558;50.922;14.068;2023-03-11T09:59:41;15.50;;;9.27;;
47796;SDS011;33558;50.922;14.068;2023-03-11T10:02:11;15.00;;;10.07;;
47796;SDS011;33558;50.922;14.068;2023-03-11T10:04:44;19.43;;;11.23;;
47796;SDS011;33558;50.922;14.068;2023-03-11T10:07:17;19.50;;;11.80;;
47796;SDS011;33558;50.922;14.068;2023-03-11T10:09:49;17.30;;;10.47;;
47796;SDS011;33558;50.922;14.068;2023-03-11T10:12:19;17.63;;;10.33;;
47796;SDS011;33558;50.922;14.068;2023-03-11T10:14:53;17.10;;;9.83;;
47796;SDS011;33558;50.922;14.068;2023-03-11T10:17:41;16.30;;;10.70;;
47796;SDS011;33558;50.922;14.068;2023-03-11T10:20:15;17.07;;;9.83;;
47796;SDS011;33558;50.922;14.068;2023-03-11T10:22:46;16.43;;;9.90;;
47796;SDS011;33558;50.922;14.068;2023-03-11T10:25:19;18.97;;;11.80;;
47796;SDS011;33558;50.922;14.068;2023-03-11T10:27:48;16.37;;;10.33;;
47796;SDS011;33558;50.922;14.068;2023-03-11T10:30:22;15.23;;;9.43;;
47796;SDS011;33558;50.922;14.068;2023-03-11T10:32:52;15.57;;;10.33;;
47796;SDS011;33558;50.922;14.068;2023-03-11T10:35:25;16.17;;;9.50;;
47796;SDS011;33558;50.922;14.068;2023-03-11T10:37:57;16.67;;;9.40;;
47796;SDS011;33558;50.922;14.068;2023-03-11T10:40:27;17.30;;;9.50;;
47796;SDS011;33558;50.922;14.068;2023-03-11T10:42:56;15.23;;;9.47;;
47796;SDS011;33558;50.922;14.068;2023-03-11T10:45:25;15.43;;;9.07;;
47796;SDS011;33558;50.922;14.068;2023-03-11T10:47:52;15.30;;;10.30;;
47796;SDS011;33558;50.922;14.068;2023-03-11T10:50:21;15.20;;;9.10;;
47796;SDS011;33558;50.922;14.068;2023-03-11T10:53:06;17.03;;;9.47;;
47796;SDS011;33558;50.922;14.068;2023-03-11T10:55:33;13.13;;;8.40;;
47796;SDS011;33558;50.922;14.068;2023-03-11T10:58:05;14.07;;;8.27;;
47796;SDS011;33558;50.922;14.068;2023-03-11T11:00:33;13.57;;;9.10;;
47796;SDS011;33558;50.922;14.068;2023-03-11T11:02:59;13.37;;;8.40;;
47796;SDS011;33558;50.922;14.068;2023-03-11T11:05:31;13.80;;;8.93;;
47796;SDS011;33558;50.922;14.068;2023-03-11T11:08:02;12.60;;;7.97;;
47796;SDS011;33558;50.922;14.068;2023-03-11T11:10:31;11.10;;;7.27;;
47796;SDS011;33558;50.922;14.068;2023-03-11T11:12:59;11.43;;;7.77;;
47796;SDS011;33558;50.922;14.068;2023-03-11T11:15:28;14.33;;;7.67;;
47796;SDS011;33558;50.922;14.068;2023-03-11T11:17:56;12.60;;;7.83;;
47796;SDS011;33558;50.922;14.068;2023-03-11T11:20:25;13.17;;;8.53;;
47796;SDS011;33558;50.922;14.068;2023-03-11T11:22:54;13.33;;;8.23;;
47796;SDS011;33558;50.922;14.068;2023-03-11T11:25:27;11.13;;;7.37;;
47796;SDS011;33558;50.922;14.068;2023-03-11T11:27:55;14.17;;;7.90;;
47796;SDS011;33558;50.922;14.068;2023-03-11T11:30:24;11.67;;;7.80;;
47796;SDS011;33558;50.922;14.068;2023-03-11T11:32:51;11.33;;;7.37;;
47796;SDS011;33558;50.922;14.068;2023-03-11T11:35:20;11.27;;;7.00;;
47796;SDS011;33558;50.922;14.068;2023-03-11T11:37:49;10.03;;;7.20;;
47796;SDS011;33558;50.922;14.068;2023-03-11T11:40:25;11.80;;;7.17;;
47796;SDS011;33558;50.922;14.068;2023-03-11T11:42:55;11.63;;;6.80;;
47796;SDS011;33558;50.922;14.068;2023-03-11T11:45:26;11.23;;;7.37;;
47796;SDS011;33558;50.922;14.068;2023-03-11T11:47:57;11.00;;;7.30;;
47796;SDS011;33558;50.922;14.068;2023-03-11T11:50:30;11.47;;;8.10;;
47796;SDS011;33558;50.922;14.068;2023-03-11T11:53:00;12.80;;;7.60;;
47796;SDS011;33558;50.922;14.068;2023-03-11T11:55:34;11.80;;;8.03;;
47796;SDS011;33558;50.922;14.068;2023-03-11T11:58:01;11.93;;;7.40;;
47796;SDS011;33558;50.922;14.068;2023-03-11T12:00:36;11.73;;;7.17;;
47796;SDS011;33558;50.922;14.068;2023-03-11T12:05:58;10.47;;;7.70;;
47796;SDS011;33558;50.922;14.068;2023-03-11T12:08:29;12.30;;;6.97;;
47796;SDS011;33558;50.922;14.068;2023-03-11T12:11:01;11.60;;;7.43;;
47796;SDS011;33558;50.922;14.068;2023-03-11T12:13:39;9.67;;;6.70;;
47796;SDS011;33558;50.922;14.068;2023-03-11T12:16:13;11.70;;;7.63;;
47796;SDS011;33558;50.922;14.068;2023-03-11T12:18:45;9.40;;;6.13;;
47796;SDS011;33558;50.922;14.068;2023-03-11T12:21:19;8.17;;;5.60;;
47796;SDS011;33558;50.922;14.068;2023-03-11T12:23:55;9.30;;;5.57;;
47796;SDS011;33558;50.922;14.068;2023-03-11T12:26:29;8.00;;;5.20;;
47796;SDS011;33558;50.922;14.068;2023-03-11T12:29:01;12.73;;;5.90;;
47796;SDS011;33558;50.922;14.068;2023-03-11T12:31:34;7.17;;;4.93;;
47796;SDS011;33558;50.922;14.068;2023-03-11T12:34:03;7.10;;;5.00;;
47796;SDS011;33558;50.922;14.068;2023-03-11T12:36:31;8.57;;;5.63;;
47796;SDS011;33558;50.922;14.068;2023-03-11T12:38:59;9.87;;;6.03;;
47796;SDS011;33558;50.922;14.068;2023-03-11T12:41:33;8.50;;;5.43;;
47796;SDS011;33558;50.922;14.068;2023-03-11T12:44:19;8.70;;;5.70;;
47796;SDS011;33558;50.922;14.068;2023-03-11T12:49:57;10.20;;;5.80;;
47796;SDS011;33558;50.922;14.068;2023-03-11T12:53:03;8.60;;;5.67;;
47796;SDS011;33558;50.922;14.068;2023-03-11T12:55:33;8.17;;;5.90;;
47796;SDS011;33558;50.922;14.068;2023-03-11T13:00:58;6.93;;;5.43;;
47796;SDS011;33558;50.922;14.068;2023-03-11T13:03:40;8.63;;;5.60;;
47796;SDS011;33558;50.922;14.068;2023-03-11T13:06:15;11.10;;;6.40;;
47796;SDS011;33558;50.922;14.068;2023-03-11T13:08:48;11.10;;;7.00;;
47796;SDS011;33558;50.922;14.068;2023-03-11T13:11:27;11.00;;;6.77;;
47796;SDS011;33558;50.922;14.068;2023-03-11T13:16:57;11.57;;;6.70;;
47796;SDS011;33558;50.922;14.068;2023-03-11T13:19:49;10.50;;;7.47;;
47796;SDS011;33558;50.922;14.068;2023-03-11T13:25:26;9.40;;;6.53;;
47796;SDS011;33558;50.922;14.068;2023-03-11T13:27:59;9.30;;;5.90;;
47796;SDS011;33558;50.922;14.068;2023-03-11T13:30:36;10.05;;;5.97;;
47796;SDS011;33558;50.922;14.068;2023-03-11T13:33:14;8.67;;;6.03;;
47796;SDS011;33558;50.922;14.068;2023-03-11T13:35:52;7.73;;;5.37;;
47796;SDS011;33558;50.922;14.068;2023-03-11T13:38:44;8.40;;;5.53;;
47796;SDS011;33558;50.922;14.068;2023-03-11T13:41:46;10.00;;;6.13;;
47796;SDS011;33558;50.922;14.068;2023-03-11T13:44:19;8.00;;;5.83;;
47796;SDS011;33558;50.922;14.068;2023-03-11T13:49:23;8.70;;;5.53;;
47796;SDS011;33558;50.922;14.068;2023-03-11T13:51:54;8.20;;;5.60;;
47796;SDS011;33558;50.922;14.068;2023-03-11T13:54:29;8.90;;;6.13;;
47796;SDS011;33558;50.922;14.068;2023-03-11T13:57:00;8.53;;;5.70;;
47796;SDS011;33558;50.922;14.068;2023-03-11T13:59:28;7.77;;;5.30;;
47796;SDS011;33558;50.922;14.068;2023-03-11T14:02:00;8.30;;;6.00;;
47796;SDS011;33558;50.922;14.068;2023-03-11T14:04:41;8.43;;;5.83;;
47796;SDS011;33558;50.922;14.068;2023-03-11T14:07:13;8.80;;;5.97;;
47796;SDS011;33558;50.922;14.068;2023-03-11T14:09:46;10.90;;;6.50;;
47796;SDS011;33558;50.922;14.068;2023-03-11T14:12:13;8.63;;;5.90;;
47796;SDS011;33558;50.922;14.068;2023-03-11T14:14:42;8.23;;;5.60;;
47796;SDS011;33558;50.922;14.068;2023-03-11T14:17:16;9.17;;;5.57;;
47796;SDS011;33558;50.922;14.068;2023-03-11T14:19:53;9.23;;;5.63;;
47796;SDS011;33558;50.922;14.068;2023-03-11T14:22:32;8.17;;;5.30;;
47796;SDS011;33558;50.922;14.068;2023-03-11T14:25:04;7.53;;;5.60;;
47796;SDS011;33558;50.922;14.068;2023-03-11T14:27:33;10.07;;;5.93;;
47796;SDS011;33558;50.922;14.068;2023-03-11T14:30:00;9.60;;;5.73;;
47796;SDS011;33558;50.922;14.068;2023-03-11T14:32:29;12.07;;;5.97;;
47796;SDS011;33558;50.922;14.068;2023-03-11T14:34:57;8.80;;;6.30;;
47796;SDS011;33558;50.922;14.068;2023-03-11T14:37:26;9.13;;;5.60;;
47796;SDS011;33558;50.922;14.068;2023-03-11T14:39:58;9.17;;;5.70;;
47796;SDS011;33558;50.922;14.068;2023-03-11T14:42:26;6.93;;;4.93;;
47796;SDS011;33558;50.922;14.068;2023-03-11T14:44:55;9.03;;;5.67;;
47796;SDS011;33558;50.922;14.068;2023-03-11T14:47:29;8.50;;;5.07;;
47796;SDS011;33558;50.922;14.068;2023-03-11T14:50:00;8.00;;;5.40;;
47796;SDS011;33558;50.922;14.068;2023-03-11T14:52:30;6.87;;;5.13;;
47796;SDS011;33558;50.922;14.068;2023-03-11T14:54:58;8.17;;;5.27;;
47796;SDS011;33558;50.922;14.068;2023-03-11T14:57:28;8.67;;;5.93;;
47796;SDS011;33558;50.922;14.068;2023-03-11T14:59:59;7.30;;;5.33;;
47796;SDS011;33558;50.922;14.068;2023-03-11T15:02:36;8.10;;;4.80;;
47796;SDS011;33558;50.922;14.068;2023-03-11T15:05:08;6.43;;;3.97;;
47796;SDS011;33558;50.922;14.068;2023-03-11T15:07:39;6.27;;;4.27;;
47796;SDS011;33558;50.922;14.068;2023-03-11T15:10:07;6.03;;;4.13;;
47796;SDS011;33558;50.922;14.068;2023-03-11T15:12:41;5.30;;;3.73;;
47796;SDS011;33558;50.922;14.068;2023-03-11T15:15:39;5.53;;;3.63;;
47796;SDS011;33558;50.922;14.068;2023-03-11T15:21:05;5.63;;;4.03;;
47796;SDS011;33558;50.922;14.068;2023-03-11T15:24:14;5.70;;;3.63;;
47796;SDS011;33558;50.922;14.068;2023-03-11T15:27:17;6.80;;;3.60;;
47796;SDS011;33558;50.922;14.068;2023-03-11T15:29:55;5.50;;;3.57;;
47796;SDS011;33558;50.922;14.068;2023-03-11T15:32:25;5.77;;;3.90;;
47796;SDS011;33558;50.922;14.068;2023-03-11T15:35:32;6.60;;;4.47;;
47796;SDS011;33558;50.922;14.068;2023-03-11T15:38:26;6.07;;;3.90;;
47796;SDS011;33558;50.922;14.068;2023-03-11T15:40:55;7.10;;;4.73;;
47796;SDS011;33558;50.922;14.068;2023-03-11T15:43:28;7.20;;;4.60;;
47796;SDS011;33558;50.922;14.068;2023-03-11T15:49:07;6.18;;;4.22;;
47796;SDS011;33558;50.922;14.068;2023-03-11T15:51:38;6.60;;;4.47;;
47796;SDS011;33558;50.922;14.068;2023-03-11T15:54:06;6.70;;;4.27;;
47796;SDS011;33558;50.922;14.068;2023-03-11T15:56:34;6.63;;;4.50;;
47796;SDS011;33558;50.922;14.068;2023-03-11T15:59:14;9.27;;;4.80;;
47796;SDS011;33558;50.922;14.068;2023-03-11T16:01:48;5.80;;;3.97;;
47796;SDS011;33558;50.922;14.068;2023-03-11T16:04:17;5.20;;;3.80;;
47796;SDS011;33558;50.922;14.068;2023-03-11T16:06:50;6.97;;;4.23;;
47796;SDS011;33558;50.922;14.068;2023-03-11T16:09:20;7.50;;;4.27;;
47796;SDS011;33558;50.922;14.068;2023-03-11T16:12:04;7.90;;;4.70;;
47796;SDS011;33558;50.922;14.068;2023-03-11T16:14:42;6.00;;;4.20;;
47796;SDS011;33558;50.922;14.068;2023-03-11T16:17:17;5.70;;;4.22;;
47796;SDS011;33558;50.922;14.068;2023-03-11T16:19:50;6.57;;;4.10;;
47796;SDS011;33558;50.922;14.068;2023-03-11T16:22:28;7.30;;;4.57;;
47796;SDS011;33558;50.922;14.068;2023-03-11T16:25:05;7.80;;;4.67;;
47796;SDS011;33558;50.922;14.068;2023-03-11T16:28:02;7.40;;;4.83;;
47796;SDS011;33558;50.922;14.068;2023-03-11T16:30:34;7.33;;;4.77;;
47796;SDS011;33558;50.922;14.068;2023-03-11T16:33:06;6.80;;;4.37;;
47796;SDS011;33558;50.922;14.068;2023-03-11T16:35:42;9.40;;;5.15;;
47796;SDS011;33558;50.922;14.068;2023-03-11T16:38:14;6.40;;;4.20;;
47796;SDS011;33558;50.922;14.068;2023-03-11T16:40:58;6.43;;;4.57;;
47796;SDS011;33558;50.922;14.068;2023-03-11T16:43:25;7.57;;;4.53;;
47796;SDS011;33558;50.922;14.068;2023-03-11T16:45:52;8.90;;;4.60;;
47796;SDS011;33558;50.922;14.068;2023-03-11T16:48:19;8.57;;;4.43;;
47796;SDS011;33558;50.922;14.068;2023-03-11T16:50:46;6.53;;;4.53;;
47796;SDS011;33558;50.922;14.068;2023-03-11T16:53:14;7.77;;;4.87;;
47796;SDS011;33558;50.922;14.068;2023-03-11T16:55:43;6.60;;;4.93;;
47796;SDS011;33558;50.922;14.068;2023-03-11T16:58:09;6.63;;;3.83;;
47796;SDS011;33558;50.922;14.068;2023-03-11T17:00:36;7.43;;;4.90;;
47796;SDS011;33558;50.922;14.068;2023-03-11T17:03:06;6.27;;;4.23;;
47796;SDS011;33558;50.922;14.068;2023-03-11T17:05:34;8.03;;;5.37;;
47796;SDS011;33558;50.922;14.068;2023-03-11T17:08:01;7.77;;;5.03;;
47796;SDS011;33558;50.922;14.068;2023-03-11T17:10:34;7.33;;;4.47;;
47796;SDS011;33558;50.922;14.068;2023-03-11T17:13:02;5.93;;;4.43;;
47796;SDS011;33558;50.922;14.068;2023-03-11T17:15:29;7.43;;;4.83;;
47796;SDS011;33558;50.922;14.068;2023-03-11T17:17:56;8.50;;;4.70;;